Time;durP1;ratioP1;P1;durP2;ratioP2;P2;SDS_P1;SDS_P2;PMS_P1;PMS_P2;Temp;Humidity;BMP_temperature;BMP_pressure;BME280_temperature;BME280_humidity;BME280_pressure;Samples;Min_cycle;Max_cycle;Signal;HPM_P1;HPM_P2
2022/11/17 00:14:59;;;;;;;;;;;;;;;;;;;;;
2022/11/17 00:36:16;;;;;;;;;4.75;3.00;;;;;9.59;100.00;97564.22;6017875;23;45254;-93
2022/11/17 00:38:48;;;;;;;;;6.25;3.25;;;;;11.47;100.00;97861.06;6142410;23;45476;-92
2022/11/17 00:41:33;;;;;;;;;;;;;;;;;;;;;
2022/11/17 00:44:03;;;;;;;;;5.00;4.00;;;;;9.65;100.00;97561.19;6128421;23;73853;-92
2022/11/17 00:46:58;;;;;;;;;3.00;2.00;;;;;9.86;100.00;97589.78;6128083;23;45311;-93
2022/11/17 01:13:14;;;;;;;;;2.50;2.50;;;;;11.12;100.00;97803.44;6126541;23;45273;-92
2022/11/17 01:15:40;;;;;;;;;4.75;2.00;;;;;10.03;100.00;97638.81;6086728;23;45261;-92
2022/11/17 01:18:14;;;;;;;;;5.75;3.00;;;;;11.44;100.00;97865.72;6131966;23;46047;-90
2022/11/17 01:20:50;;;;;;;;;1.75;1.00;;;;;11.42;100.00;97834.09;6116767;23;45403;-93
2022/11/17 01:23:21;;;;;;;;;0.00;0.00;;;;;11.41;100.00;97882.63;6107265;23;45288;-92
2022/11/17 01:26:01;;;;;;;;;2.75;2.50;;;;;10.69;100.00;97771.03;6132179;23;45469;-90
2022/11/17 01:28:58;;;;;;;;;;;;;;;;;;;;;
2022/11/17 01:39:26;;;;;;;;;;;;;;;;;;;;;
2022/11/17 01:56:15;;;;;;;;;2.00;2.00;;;;;10.22;100.00;97751.97;6014638;23;45330;-93
2022/11/17 02:12:13;;;;;;;;;2.00;2.00;;;;;10.32;100.00;97779.47;5973018;23;45294;-91
2022/11/17 02:14:40;;;;;;;;;2.25;0.00;;;;;9.65;100.00;97671.09;5983801;23;45423;-92
2022/11/17 02:17:21;;;;;;;;;3.50;0.00;;;;;11.26;100.00;97942.66;6009442;23;45348;-92
2022/11/17 02:20:09;;;;;;;;;1.75;1.25;;;;;10.97;100.00;97891.66;5982964;23;47889;-92
2022/11/17 02:23:18;;;;;;;;;2.00;1.00;;;;;10.62;100.00;97844.56;6027578;23;46131;-91
2022/11/17 02:25:56;;;;;;;;;2.25;1.00;;;;;11.40;100.00;97959.41;6113303;23;44679;-91
2022/11/17 02:29:02;;;;;;;;;1.00;1.00;;;;;10.34;100.00;97789.97;6110140;23;44820;-92
2022/11/17 02:32:19;;;;;;;;;1.00;1.00;;;;;11.38;100.00;97952.44;6038209;23;45492;-92
2022/11/17 02:35:20;;;;;;;;;1.25;0.00;;;;;11.02;100.00;97921.28;6120398;23;45377;-90
2022/11/17 02:38:32;;;;;;;;;2.00;1.00;;;;;9.52;100.00;97647.28;6131446;23;45361;-91
2022/11/17 02:41:16;;;;;;;;;2.00;1.00;;;;;11.38;100.00;97951.59;6159394;23;45150;-91
2022/11/17 02:44:13;;;;;;;;;3.50;2.25;;;;;10.50;100.00;97822.41;6142257;23;48272;-92
2022/11/17 02:46:48;;;;;;;;;0.00;0.00;;;;;10.68;100.00;97841.53;6143386;23;45169;-92
2022/11/17 02:49:34;;;;;;;;;1.00;0.00;;;;;9.75;100.00;97715.28;6134505;23;45282;-93
2022/11/17 02:55:32;;;;;;;;;0.50;0.50;;;;;10.96;100.00;97929.59;6155553;23;45388;-93
2022/11/17 02:58:18;;;;;;;;;1.00;1.00;;;;;11.33;100.00;97988.06;6114456;23;45249;-93
2022/11/17 03:01:12;;;;;;;;;0.00;0.00;;;;;10.25;100.00;97813.34;6175184;23;44604;-93
2022/11/17 03:03:59;;;;;;;;;1.75;0.75;;;;;11.32;100.00;97984.56;6083365;23;45181;-92
2022/11/17 03:06:45;;;;;;;;;1.00;1.00;;;;;9.99;100.00;97763.97;6075978;23;45491;-91
2022/11/17 03:09:50;;;;;;;;;2.25;1.75;;;;;11.32;100.00;98000.41;6143293;23;45437;-92
2022/11/17 03:12:39;;;;;;;;;1.00;1.00;;;;;9.67;100.00;97749.19;6193363;23;45248;-91
2022/11/17 03:15:42;;;;;;;;;0.00;0.00;;;;;11.31;100.00;98005.81;6161889;23;45541;-93
2022/11/17 03:18:11;;;;;;;;;0.00;0.00;;;;;11.31;100.00;98037.53;6186782;23;48397;-92
2022/11/17 03:21:09;;;;;;;;;0.00;0.00;;;;;10.61;100.00;97911.53;6168956;23;45799;-92
2022/11/17 03:24:10;;;;;;;;;0.00;0.00;;;;;11.30;100.00;98043.78;6171519;23;44853;-92
2022/11/17 03:26:52;;;;;;;;;0.00;0.00;;;;;9.43;100.00;97747.09;6198614;23;44782;-94
2022/11/17 03:29:26;;;;;;;;;0.75;0.75;;;;;10.63;100.00;97949.28;6168848;23;46938;-94
2022/11/17 03:31:58;;;;;;;;;1.00;0.00;;;;;9.61;100.00;97799.69;6191610;23;45318;-93
2022/11/17 03:34:40;;;;;;;;;1.50;0.00;;;;;11.23;100.00;98063.63;6191427;23;44735;-93
2022/11/17 03:37:22;;;;;;;;;0.00;0.00;;;;;9.39;100.00;97774.56;6184993;23;45326;-94
2022/11/17 03:39:57;;;;;;;;;0.00;0.00;;;;;10.19;100.00;97919.31;6213933;22;45459;-93
2022/11/17 03:42:33;;;;;;;;;0.00;0.00;;;;;11.18;100.00;98088.56;6320889;22;44660;-92
2022/11/17 03:45:49;;;;;;;;;0.00;0.00;;;;;10.78;100.00;98032.88;6333865;22;45237;-92
2022/11/17 03:48:30;;;;;;;;;0.00;0.00;;;;;10.07;100.00;97894.50;6322179;22;45530;-92
2022/11/17 03:51:22;;;;;;;;;0.75;0.75;;;;;10.77;100.00;98025.88;6344465;22;45505;-93
2022/11/17 03:53:50;;;;;;;;;0.00;0.00;;;;;9.72;100.00;97859.69;6356315;22;44633;-92
2022/11/17 03:56:48;;;;;;;;;0.25;0.25;;;;;10.39;100.00;97970.94;6355723;22;45257;-92
2022/11/17 03:59:24;;;;;;;;;3.00;0.00;;;;;11.14;100.00;98109.97;6318227;22;45304;-91
2022/11/17 04:01:49;;;;;;;;;0.00;0.00;;;;;11.07;100.00;98114.81;6344524;22;48425;-91
2022/11/17 04:04:20;;;;;;;;;0.00;0.00;;;;;10.16;100.00;97960.88;6346886;22;44652;-91
2022/11/17 04:07:03;;;;;;;;;0.00;0.00;;;;;9.45;100.00;97851.63;6358177;22;44750;-92
2022/11/17 04:09:43;;;;;;;;;;;;;;;;;;;;;
2022/11/17 04:18:25;;;;;;;;;0.00;0.00;;;;;9.99;100.00;97985.63;6349772;22;45283;-93
2022/11/17 04:20:56;;;;;;;;;0.75;0.00;;;;;9.07;100.00;97843.19;6352137;22;45406;-93
2022/11/17 04:23:27;;;;;;;;;2.25;0.00;;;;;9.70;100.00;97949.47;6355125;22;46379;-94
2022/11/17 04:29:05;;;;;;;;;0.00;0.00;;;;;10.60;100.00;98119.34;6355487;22;45185;-93
2022/11/17 04:35:15;;;;;;;;;1.00;0.00;;;;;9.03;100.00;97854.84;6354521;22;44890;-93
2022/11/17 04:37:52;;;;;;;;;0.00;0.00;;;;;10.90;100.00;98181.03;6306779;22;44783;-95
2022/11/17 04:40:23;;;;;;;;;0.00;0.00;;;;;10.86;100.00;98184.81;6322376;22;44837;-95
2022/11/17 04:42:53;;;;;;;;;1.00;0.75;;;;;10.81;100.00;98180.66;6324387;22;45240;-94
2022/11/17 04:45:26;;;;;;;;;0.00;0.00;;;;;9.13;100.00;97928.97;6298315;22;45319;-94
2022/11/17 04:48:18;;;;;;;;;0.00;0.00;;;;;10.76;100.00;98214.41;6323821;22;44856;-93
2022/11/17 04:50:46;;;;;;;;;1.25;0.00;;;;;10.75;100.00;98210.06;6296552;22;45114;-93
2022/11/17 04:53:42;;;;;;;;;0.00;0.00;;;;;10.73;100.00;98204.00;6320511;22;45169;-93
2022/11/17 04:56:13;;;;;;;;;1.75;1.00;;;;;9.13;100.00;97946.56;6326225;22;46465;-93
2022/11/17 04:58:56;;;;;;;;;0.00;0.00;;;;;10.34;100.00;98144.66;6302444;22;44612;-93
2022/11/17 05:01:55;;;;;;;;;0.00;0.00;;;;;9.65;100.00;98041.16;6289126;22;45191;-93
2022/11/17 05:07:13;;;;;;;;;0.00;0.00;;;;;8.82;100.00;97914.00;6326342;22;44905;-93
2022/11/17 05:09:56;;;;;;;;;0.00;0.00;;;;;10.07;100.00;98147.88;6301006;22;44612;-93
2022/11/17 05:19:00;;;;;;;;;0.00;0.00;;;;;10.25;100.00;98177.66;6330400;22;44953;-92
2022/11/17 05:25:04;;;;;;;;;1.00;0.00;;;;;8.85;100.00;97971.78;6326388;22;44637;-94
2022/11/17 05:27:38;;;;;;;;;0.00;0.00;;;;;10.29;100.00;98202.09;6297715;22;44832;-93
2022/11/17 05:30:09;;;;;;;;;1.00;0.00;;;;;8.89;100.00;97978.59;6290970;22;46283;-93
2022/11/17 05:32:38;;;;;;;;;0.00;0.00;;;;;10.68;100.00;98263.34;6291221;22;45378;-93
2022/11/17 05:35:09;;;;;;;;;0.00;0.00;;;;;9.24;100.00;98033.78;6293078;22;45219;-93
2022/11/17 05:37:37;;;;;;;;;0.00;0.00;;;;;10.03;100.00;98191.19;6315424;22;45571;-93
2022/11/17 05:40:26;;;;;;;;;0.00;0.00;;;;;9.56;100.00;98097.06;6290469;22;46773;-94
2022/11/17 05:43:19;;;;;;;;;0.00;0.00;;;;;10.60;100.00;98267.28;6350186;22;45073;-93
2022/11/17 05:45:46;;;;;;;;;0.50;0.25;;;;;9.14;100.00;98048.38;6355252;22;45178;-94
2022/11/17 05:48:33;;;;;;;;;0.00;0.00;;;;;9.88;100.00;98160.38;6358386;22;44827;-93
2022/11/17 05:51:08;;;;;;;;;0.00;0.00;;;;;9.16;100.00;98043.91;6352830;22;46904;-93
2022/11/17 05:53:40;;;;;;;;;1.50;0.00;;;;;9.75;100.00;98161.06;6356317;22;45354;-93
2022/11/17 06:06:07;;;;;;;;;1.25;0.50;;;;;9.92;100.00;98222.63;6349209;22;44751;-94
2022/11/17 06:08:39;;;;;;;;;0.50;0.50;;;;;10.38;100.00;98309.88;6352750;22;45308;-94
2022/11/17 06:11:14;;;;;;;;;0.75;0.75;;;;;8.62;100.00;98023.88;6350464;22;44868;-93
2022/11/17 06:18:08;;;;;;;;;3.00;1.00;;;;;8.97;100.00;98097.56;6352796;22;45361;-95
2022/11/17 06:49:11;;;;;;;;;0.00;0.00;;;;;9.62;100.00;98231.25;6143095;23;44811;-94
2022/11/17 07:08:54;;;;;;;;;1.50;0.00;;;;;8.33;100.00;98057.78;6243769;22;45625;-95
2022/11/17 07:15:18;;;;;;;;;0.25;0.25;;;;;10.11;100.00;98357.94;6339387;22;45224;-94
2022/11/17 08:15:48;;;;;;;;;0.50;0.50;;;;;9.14;100.00;98136.22;6358640;22;46454;-93
2022/11/17 09:15:16;;;;;;;;;1.00;1.00;;;;;11.79;100.00;98426.19;6344411;22;45312;-93
2022/11/17 09:18:11;;;;;;;;;1.00;1.00;;;;;11.42;100.00;98381.56;6327150;22;47015;-91
2022/11/17 09:20:37;;;;;;;;;3.75;2.25;;;;;10.27;100.00;98211.91;6331920;22;45260;-94
2022/11/17 09:23:32;;;;;;;;;0.00;0.00;;;;;11.71;100.00;98437.22;6325015;22;45274;-93
2022/11/17 09:40:57;;;;;;;;;;;;;;;;;;;;;
2022/11/17 09:43:54;;;;;;;;;;;;;;;;;;;;;
2022/11/17 09:46:58;;;;;;;;;0.00;0.00;;;;;9.09;100.00;98124.22;6169596;23;72019;-94
2022/11/17 10:07:08;;;;;;;;;;;;;;;;;;;;;
